Time;durP1;ratioP1;P1;durP2;ratioP2;P2;SDS_P1;SDS_P2;PMS_P1;PMS_P2;Temp;Humidity;BMP_temperature;BMP_pressure;BME280_temperature;BME280_humidity;BME280_pressure;Samples;Min_cycle;Max_cycle;Signal;HPM_P1;HPM_P2
2022/03/05 00:00:30;;;;;;;38.42;19.27;;;;;;;0.76;74.81;101975.91;5042308;28;20025;-67
2022/03/05 00:02:56;;;;;;;40.75;21.90;;;;;;;0.57;76.22;101970.47;5042544;28;20351;-69
2022/03/05 00:05:21;;;;;;;39.80;20.92;;;;;;;0.50;75.98;101975.56;5041866;28;20025;-68
2022/03/05 00:07:47;;;;;;;36.40;19.98;;;;;;;0.50;75.95;101973.72;5042557;28;20028;-70
2022/03/05 00:10:12;;;;;;;44.78;22.15;;;;;;;0.45;76.08;101970.56;5042357;28;20270;-69
2022/03/05 00:12:37;;;;;;;38.20;21.67;;;;;;;0.39;76.35;101968.41;5043126;28;20052;-69
2022/03/05 00:15:03;;;;;;;42.88;21.42;;;;;;;0.33;76.81;101982.47;5043001;28;20036;-68
2022/03/05 00:17:28;;;;;;;40.08;21.13;;;;;;;0.39;76.64;101983.78;5041926;28;20789;-69
2022/03/05 00:19:54;;;;;;;42.90;22.98;;;;;;;0.30;77.10;101980.03;5041663;28;20021;-69
2022/03/05 00:22:20;;;;;;;44.17;22.90;;;;;;;0.27;77.54;101985.72;5041951;28;20217;-69
2022/03/05 00:24:45;;;;;;;43.20;22.10;;;;;;;0.24;78.00;101978.72;5042517;28;20029;-69
2022/03/05 00:27:10;;;;;;;45.47;22.10;;;;;;;0.24;77.68;101978.72;5042468;28;20107;-68
2022/03/05 00:29:36;;;;;;;45.13;23.27;;;;;;;0.19;77.90;101975.59;5042830;28;20029;-69
2022/03/05 00:32:01;;;;;;;45.10;23.60;;;;;;;0.19;78.08;101982.84;5041345;28;20110;-69
2022/03/05 00:34:26;;;;;;;42.95;21.80;;;;;;;0.16;78.27;101973.16;5040053;28;20044;-69
2022/03/05 00:36:51;;;;;;;47.05;23.27;;;;;;;0.15;78.14;101975.97;5042519;28;20023;-69
2022/03/05 00:39:17;;;;;;;44.90;22.83;;;;;;;0.14;78.24;101976.97;5041923;28;20426;-69
2022/03/05 00:41:42;;;;;;;47.58;22.75;;;;;;;0.09;78.28;101979.22;5041580;28;20033;-69
2022/03/05 00:44:07;;;;;;;47.08;23.20;;;;;;;0.06;78.67;101977.69;5043168;28;20136;-68
2022/03/05 00:46:33;;;;;;;42.85;23.08;;;;;;;0.03;79.27;101982.47;5042153;28;20403;-70
2022/03/05 00:48:58;;;;;;;47.47;24.10;;;;;;;-0.01;78.75;101974.63;5040704;28;20070;-69
2022/03/05 00:51:23;;;;;;;46.60;24.00;;;;;;;-0.01;78.81;101971.94;5041382;28;20031;-69
2022/03/05 00:53:48;;;;;;;52.55;25.20;;;;;;;-0.03;78.93;101973.06;5042332;28;20496;-69
2022/03/05 00:56:14;;;;;;;45.38;24.23;;;;;;;-0.04;79.22;101974.06;5041812;28;20116;-69
2022/03/05 00:58:39;;;;;;;50.47;24.15;;;;;;;-0.10;79.43;101970.06;5041664;28;20494;-69
2022/03/05 01:01:04;;;;;;;50.20;23.90;;;;;;;-0.15;79.32;101974.13;5041722;28;20033;-69
2022/03/05 01:03:30;;;;;;;47.10;26.33;;;;;;;-0.17;79.83;101971.56;5041302;28;20468;-68
2022/03/05 01:05:55;;;;;;;52.38;25.25;;;;;;;-0.20;80.04;101976.38;5040778;28;20025;-70
2022/03/05 01:08:21;;;;;;;45.25;22.35;;;;;;;-0.17;79.51;101966.16;5041413;28;20021;-68
2022/03/05 01:10:46;;;;;;;44.00;24.90;;;;;;;-0.27;79.93;101976.06;5041662;28;20526;-69
2022/03/05 01:13:12;;;;;;;46.97;23.77;;;;;;;-0.27;80.00;101973.34;5041238;28;20123;-69
2022/03/05 01:15:37;;;;;;;48.40;25.08;;;;;;;-0.27;79.73;101971.50;5041782;28;20036;-69
2022/03/05 01:18:02;;;;;;;49.85;23.58;;;;;;;-0.30;80.27;101970.94;5041940;28;20025;-69
2022/03/05 01:20:28;;;;;;;50.13;24.95;;;;;;;-0.32;80.21;101967.50;5038943;28;20347;-69
2022/03/05 01:22:53;;;;;;;49.92;26.40;;;;;;;-0.33;80.40;101973.88;5041043;28;20705;-69
2022/03/05 01:25:19;;;;;;;52.05;24.83;;;;;;;-0.34;80.44;101964.94;5041598;28;20029;-68
2022/03/05 01:27:44;;;;;;;51.40;25.48;;;;;;;-0.40;80.69;101964.63;5039971;28;20517;-69
2022/03/05 01:30:10;;;;;;;46.05;24.42;;;;;;;-0.43;81.03;101970.25;5040858;28;20151;-68
2022/03/05 01:32:35;;;;;;;52.15;25.77;;;;;;;-0.47;80.82;101963.41;5041543;28;20041;-69
2022/03/05 01:35:01;;;;;;;49.97;23.90;;;;;;;-0.50;81.15;101964.53;5040930;28;20024;-68
2022/03/05 01:37:26;;;;;;;47.60;24.45;;;;;;;-0.55;81.32;101962.25;5040745;28;20032;-69
2022/03/05 01:39:51;;;;;;;47.97;25.58;;;;;;;-0.58;81.39;101962.50;5040693;28;20033;-69
2022/03/05 01:42:21;;;;;;;45.10;24.13;;;;;;;-0.59;81.46;101968.88;5040339;28;20233;-68
2022/03/05 01:44:46;;;;;;;49.88;26.08;;;;;;;-0.64;81.55;101957.63;5041053;28;20553;-69
2022/03/05 01:47:11;;;;;;;53.22;25.30;;;;;;;-0.65;81.51;101963.16;5038969;28;20120;-69
2022/03/05 01:49:37;;;;;;;48.53;24.58;;;;;;;-0.69;81.89;101970.66;5040968;28;20057;-68
2022/03/05 01:52:03;;;;;;;52.35;25.70;;;;;;;-0.71;82.18;101966.34;5040784;28;20032;-69
2022/03/05 01:54:29;;;;;;;55.08;26.10;;;;;;;-0.75;82.13;101970.31;5040208;28;20345;-69
2022/03/05 01:56:56;;;;;;;50.58;24.13;;;;;;;-0.78;82.14;101966.03;5040884;28;20172;-67
2022/03/05 01:59:21;;;;;;;53.03;24.65;;;;;;;-0.82;82.53;101964.56;5040845;28;20044;-67
2022/03/05 02:01:47;;;;;;;49.28;24.08;;;;;;;-0.86;82.77;101964.00;5038903;28;20025;-67
2022/03/05 02:04:12;;;;;;;53.50;25.55;;;;;;;-0.84;82.76;101963.84;5039404;28;20044;-67
2022/03/05 02:06:38;;;;;;;54.97;25.58;;;;;;;-0.87;82.77;101964.94;5041219;28;20463;-66
2022/03/05 02:09:03;;;;;;;54.67;27.05;;;;;;;-0.90;83.08;101967.91;5041193;28;20131;-66
2022/03/05 02:11:29;;;;;;;49.20;25.02;;;;;;;-0.94;83.08;101958.38;5040388;28;20025;-67
2022/03/05 02:13:55;;;;;;;53.17;24.67;;;;;;;-0.93;83.12;101972.72;5040789;28;20043;-67
2022/03/05 02:16:21;;;;;;;50.30;24.55;;;;;;;-0.95;82.86;101972.84;5039725;28;20021;-67
2022/03/05 02:18:49;;;;;;;51.30;25.60;;;;;;;-0.97;83.09;101972.09;5039773;28;20024;-67
2022/03/05 02:21:15;;;;;;;42.87;24.43;;;;;;;-0.99;83.07;101968.69;5040478;28;20029;-67
2022/03/05 02:23:40;;;;;;;53.83;26.08;;;;;;;-1.01;83.27;101970.66;5041209;28;20325;-67
2022/03/05 02:26:06;;;;;;;52.70;26.15;;;;;;;-1.00;83.38;101963.44;5040585;28;20044;-67
2022/03/05 02:28:33;;;;;;;52.60;26.73;;;;;;;-0.98;83.05;101964.16;5040035;28;20025;-67
2022/03/05 02:30:59;;;;;;;51.22;26.35;;;;;;;-1.03;83.48;101953.75;5039901;28;20040;-67
2022/03/05 02:33:24;;;;;;;53.45;25.38;;;;;;;-1.08;83.46;101954.13;5040628;28;20460;-67
2022/03/05 02:35:50;;;;;;;53.80;25.58;;;;;;;-1.09;83.70;101960.50;5039715;28;20100;-67
2022/03/05 02:38:20;;;;;;;52.83;25.40;;;;;;;-1.13;83.76;101950.09;5040185;28;20040;-67
2022/03/05 02:40:47;;;;;;;57.28;26.17;;;;;;;-1.10;83.81;101950.72;5040287;28;20362;-67
2022/03/05 02:43:13;;;;;;;53.28;25.65;;;;;;;-1.17;83.74;101946.78;5039593;28;20124;-67
2022/03/05 02:45:38;;;;;;;55.97;26.27;;;;;;;-1.18;83.69;101947.78;5039801;28;20384;-65
2022/03/05 02:48:06;;;;;;;54.78;25.58;;;;;;;-1.20;84.19;101949.75;5041394;28;20772;-67
2022/03/05 02:50:32;;;;;;;58.45;26.92;;;;;;;-1.23;83.96;101941.91;5039073;28;20472;-67
2022/03/05 02:52:57;;;;;;;53.10;25.80;;;;;;;-1.25;84.02;101949.28;5040903;28;20028;-67
2022/03/05 02:55:23;;;;;;;57.92;25.95;;;;;;;-1.26;84.24;101954.81;5039918;28;20079;-67
2022/03/05 02:57:48;;;;;;;54.35;25.88;;;;;;;-1.28;84.22;101946.84;5039835;28;20033;-67
2022/03/05 03:00:15;;;;;;;62.05;27.95;;;;;;;-1.26;84.21;101949.44;5040661;28;20433;-67
2022/03/05 03:02:41;;;;;;;55.20;26.50;;;;;;;-1.27;84.00;101951.22;5039892;28;20391;-67
2022/03/05 03:05:06;;;;;;;54.08;26.25;;;;;;;-1.29;83.98;101953.22;5038501;28;20017;-67
2022/03/05 03:07:32;;;;;;;49.80;24.20;;;;;;;-1.18;83.79;101942.41;5039393;28;20070;-67
2022/03/05 03:09:58;;;;;;;58.13;28.25;;;;;;;-1.27;83.84;101940.47;5039076;28;20350;-67
2022/03/05 03:12:24;;;;;;;54.58;23.48;;;;;;;-1.03;82.99;101947.50;5040225;28;20037;-67
2022/03/05 03:14:50;;;;;;;60.70;27.13;;;;;;;-1.17;83.30;101937.84;5040046;28;20099;-67
2022/03/05 03:17:17;;;;;;;59.00;26.38;;;;;;;-1.31;83.71;101945.25;5039040;28;20056;-67
2022/03/05 03:19:42;;;;;;;57.60;27.08;;;;;;;-1.36;84.02;101943.94;5039153;28;20029;-67
2022/03/05 03:22:07;;;;;;;54.03;26.63;;;;;;;-1.43;84.39;101931.94;5040136;28;20406;-67
2022/03/05 03:24:32;;;;;;;59.30;26.98;;;;;;;-1.48;84.38;101935.00;5039930;28;20027;-66
2022/03/05 03:26:58;;;;;;;58.10;27.73;;;;;;;-1.49;84.85;101940.53;5040931;28;20090;-67
2022/03/05 03:29:23;;;;;;;61.85;28.20;;;;;;;-1.51;84.78;101931.72;5043024;28;20029;-67
2022/03/05 03:31:48;;;;;;;59.35;26.65;;;;;;;-1.56;84.61;101940.19;5043174;28;20021;-69
2022/03/05 03:34:14;;;;;;;56.75;25.90;;;;;;;-1.60;84.65;101933.31;5042521;28;20048;-69
2022/03/05 03:36:39;;;;;;;54.40;26.15;;;;;;;-1.66;84.75;101931.97;5043520;28;20025;-69
2022/03/05 03:39:04;;;;;;;53.45;25.83;;;;;;;-1.70;85.14;101929.66;5043518;28;20030;-69
2022/03/05 03:41:29;;;;;;;53.28;25.85;;;;;;;-1.71;85.29;101931.50;5043031;28;20095;-69
2022/03/05 03:43:55;;;;;;;58.28;27.00;;;;;;;-1.74;85.27;101944.34;5043877;28;20029;-69
2022/03/05 03:46:20;;;;;;;54.88;23.88;;;;;;;-1.66;85.04;101937.38;5042458;28;20032;-69
2022/03/05 03:48:45;;;;;;;56.60;27.83;;;;;;;-1.69;84.89;101945.69;5042408;28;20472;-69
2022/03/05 03:51:10;;;;;;;54.00;26.17;;;;;;;-1.77;85.20;101947.28;5042885;28;20033;-69
2022/03/05 03:53:36;;;;;;;56.80;25.70;;;;;;;-1.81;85.49;101954.78;5043979;28;20025;-69
2022/03/05 03:56:01;;;;;;;53.60;25.20;;;;;;;-1.88;85.79;101943.63;5042782;28;20573;-69
2022/03/05 03:58:26;;;;;;;53.47;24.17;;;;;;;-1.90;85.20;101950.13;5042878;28;20032;-69
2022/03/05 04:00:52;;;;;;;58.92;27.23;;;;;;;-1.94;85.27;101945.94;5042491;28;20311;-69
2022/03/05 04:03:17;;;;;;;57.58;26.88;;;;;;;-1.99;85.69;101948.16;5042724;28;20028;-69
2022/03/05 04:05:43;;;;;;;56.72;26.35;;;;;;;-2.03;86.22;101949.38;5042688;28;20051;-69
2022/03/05 04:10:52;;;;;;;60.72;26.08;;;;;;;-1.86;85.16;101944.38;5042446;28;20079;-69
2022/03/05 04:13:18;;;;;;;56.00;26.00;;;;;;;-1.86;84.97;101935.44;5042393;28;20438;-69
2022/03/05 04:15:45;;;;;;;52.20;23.92;;;;;;;-1.96;85.53;101943.38;5042615;28;20111;-69
2022/03/05 04:18:10;;;;;;;55.00;25.45;;;;;;;-2.00;85.45;101941.06;5042593;28;20025;-69
2022/03/05 04:20:35;;;;;;;53.03;21.00;;;;;;;-1.92;85.27;101941.31;5042106;28;20357;-69
2022/03/05 04:23:01;;;;;;;64.47;28.60;;;;;;;-2.03;85.42;101944.84;5042360;28;20091;-69
2022/03/05 04:25:26;;;;;;;63.83;26.70;;;;;;;-2.15;85.95;101951.22;5040847;28;20040;-69
2022/03/05 04:27:51;;;;;;;61.55;28.77;;;;;;;-2.10;85.73;101952.56;5042908;28;20418;-69
2022/03/05 04:30:17;;;;;;;61.50;26.35;;;;;;;-2.12;86.15;101946.44;5042311;28;20107;-69
2022/03/05 04:32:42;;;;;;;71.53;31.55;;;;;;;-2.09;86.10;101954.25;5041761;28;20260;-69
2022/03/05 04:35:08;;;;;;;61.95;27.60;;;;;;;-2.02;86.05;101949.28;5041824;28;20682;-69
2022/03/05 04:37:33;;;;;;;64.38;29.20;;;;;;;-2.00;85.88;101957.22;5042385;28;20384;-67
2022/03/05 04:39:58;;;;;;;62.00;29.00;;;;;;;-1.84;85.52;101955.84;5040032;28;20075;-67
2022/03/05 04:42:24;;;;;;;65.57;30.00;;;;;;;-1.95;85.86;101963.09;5041062;28;20043;-67
2022/03/05 04:44:49;;;;;;;48.40;19.98;;;;;;;-1.91;85.69;101959.19;5042401;28;20052;-67
2022/03/05 04:47:14;;;;;;;59.58;24.88;;;;;;;-1.91;85.57;101967.25;5040360;28;20486;-66
2022/03/05 04:49:39;;;;;;;70.10;28.83;;;;;;;-2.04;86.38;101972.75;5041265;28;20036;-67
2022/03/05 04:52:05;;;;;;;64.95;27.33;;;;;;;-1.99;86.02;101964.31;5042268;28;20033;-67
2022/03/05 04:54:33;;;;;;;65.97;28.33;;;;;;;-2.16;87.10;101966.50;5042015;28;20029;-67
2022/03/05 04:56:58;;;;;;;77.13;31.47;;;;;;;-2.20;87.81;101969.56;5042385;28;20053;-67
2022/03/05 04:59:23;;;;;;;64.35;28.17;;;;;;;-2.21;87.78;101967.84;5041693;28;20647;-67
2022/03/05 05:01:48;;;;;;;65.57;29.33;;;;;;;-2.21;87.58;101965.16;5041625;28;20435;-67
2022/03/05 05:04:14;;;;;;;73.55;30.52;;;;;;;-2.21;87.65;101965.16;5040714;28;20021;-66
2022/03/05 05:06:39;;;;;;;68.70;27.83;;;;;;;-2.11;87.14;101967.00;5041831;28;20059;-67
2022/03/05 05:09:04;;;;;;;68.90;29.48;;;;;;;-2.07;86.71;101969.47;5041164;28;20025;-66
2022/03/05 05:11:30;;;;;;;60.15;25.48;;;;;;;-1.83;85.52;101967.47;5041292;28;20048;-67
2022/03/05 05:13:55;;;;;;;64.35;29.90;;;;;;;-2.13;87.09;101971.66;5041473;28;20415;-67
2022/03/05 05:16:20;;;;;;;75.60;30.63;;;;;;;-2.21;87.52;101984.00;5040835;28;20487;-69
2022/03/05 05:21:30;;;;;;;76.18;31.35;;;;;;;-2.28;88.30;101975.53;5041366;28;20035;-69
2022/03/05 05:23:55;;;;;;;66.70;29.23;;;;;;;-2.11;87.23;101971.53;5041426;28;20021;-69
2022/03/05 05:26:20;;;;;;;70.43;31.17;;;;;;;-2.28;88.13;101978.25;5040881;28;20029;-69
2022/03/05 05:28:46;;;;;;;78.65;31.08;;;;;;;-2.29;88.12;101987.25;5041254;28;20203;-69
2022/03/05 05:31:11;;;;;;;74.50;30.88;;;;;;;-2.31;88.87;101983.84;5040834;28;20033;-69
2022/03/05 05:33:39;;;;;;;73.05;30.50;;;;;;;-2.26;87.79;101992.41;5040745;28;20009;-69
2022/03/05 05:36:04;;;;;;;68.93;28.40;;;;;;;-2.30;88.32;101990.06;5041536;28;20055;-69
2022/03/05 05:38:31;;;;;;;72.07;27.67;;;;;;;-2.30;88.79;101995.47;5040809;28;20336;-69
2022/03/05 05:40:56;;;;;;;66.20;27.77;;;;;;;-2.20;87.57;101996.47;5040958;28;20009;-69
2022/03/05 05:43:21;;;;;;;73.93;31.55;;;;;;;-2.27;87.97;101988.03;5041268;28;20083;-69
2022/03/05 05:45:47;;;;;;;82.20;32.95;;;;;;;-2.28;88.83;101996.19;5040173;28;20079;-69
2022/03/05 05:48:12;;;;;;;75.07;31.15;;;;;;;-2.27;88.38;102006.84;5039898;28;20017;-69
2022/03/05 05:50:37;;;;;;;65.63;30.05;;;;;;;-2.30;88.46;101999.00;5041214;28;20029;-69
2022/03/05 05:53:02;;;;;;;76.82;32.60;;;;;;;-2.32;88.46;102008.19;5041150;28;20047;-69
2022/03/05 05:55:28;;;;;;;71.88;31.73;;;;;;;-2.33;88.91;102004.66;5040262;28;20035;-69
2022/03/05 05:57:53;;;;;;;75.03;32.17;;;;;;;-2.24;88.43;102003.03;5040753;28;20502;-69
2022/03/05 06:00:18;;;;;;;75.28;30.48;;;;;;;-2.29;88.66;102003.41;5040883;28;20036;-69
2022/03/05 06:02:44;;;;;;;80.80;30.85;;;;;;;-2.00;87.01;101994.91;5039976;28;20032;-69
2022/03/05 06:05:09;;;;;;;78.82;31.92;;;;;;;-2.21;88.29;102001.00;5039504;28;20021;-69
2022/03/05 06:07:34;;;;;;;75.45;30.90;;;;;;;-2.22;88.20;101993.03;5040904;28;20029;-69
2022/03/05 06:09:59;;;;;;;78.03;31.00;;;;;;;-2.19;87.86;101995.47;5040656;28;20491;-69
2022/03/05 06:12:25;;;;;;;77.45;33.90;;;;;;;-2.21;88.00;101990.22;5040710;28;20028;-69
2022/03/05 06:14:50;;;;;;;76.10;29.85;;;;;;;-2.25;88.07;101999.50;5040695;28;20021;-70
2022/03/05 06:17:15;;;;;;;73.88;28.63;;;;;;;-2.27;88.15;101995.22;5039919;28;20555;-69
2022/03/05 06:19:42;;;;;;;85.32;30.38;;;;;;;-2.26;88.12;101992.41;5039625;28;20036;-69
2022/03/05 06:22:08;;;;;;;77.43;31.50;;;;;;;-2.23;88.38;102002.06;5041151;28;20029;-69
2022/03/05 06:24:33;;;;;;;81.05;30.08;;;;;;;-2.27;88.18;102001.47;5040920;28;20040;-69
2022/03/05 06:26:58;;;;;;;76.80;30.67;;;;;;;-2.26;88.37;102007.72;5040039;28;20381;-69
2022/03/05 06:29:23;;;;;;;84.20;30.70;;;;;;;-2.27;88.48;102000.63;5040568;28;20021;-69
2022/03/05 06:31:49;;;;;;;81.38;31.38;;;;;;;-2.27;88.63;102000.63;5039096;28;20048;-69
2022/03/05 06:34:14;;;;;;;84.82;32.17;;;;;;;-2.25;88.39;102004.88;5039261;28;20436;-69
2022/03/05 06:36:39;;;;;;;81.20;32.58;;;;;;;-2.25;88.22;102007.56;5040197;28;20074;-69
2022/03/05 06:39:04;;;;;;;83.13;33.05;;;;;;;-2.19;88.42;102008.94;5040843;28;20036;-69
2022/03/05 06:41:30;;;;;;;91.78;33.42;;;;;;;-2.17;88.59;102005.16;5038832;28;20488;-69
2022/03/05 06:43:55;;;;;;;80.55;33.65;;;;;;;-2.11;88.02;102006.50;5040295;28;20026;-69
2022/03/05 06:46:20;;;;;;;82.07;30.88;;;;;;;-2.07;87.91;102010.69;5039408;28;20502;-69
2022/03/05 06:48:46;;;;;;;83.15;31.67;;;;;;;-2.05;87.80;102005.16;5039479;28;20025;-69
2022/03/05 06:51:12;;;;;;;81.70;32.92;;;;;;;-2.03;87.96;102009.44;5038826;28;20033;-69
2022/03/05 06:53:38;;;;;;;86.40;31.33;;;;;;;-1.86;88.11;102009.00;5040754;28;20099;-69
2022/03/05 06:56:03;;;;;;;83.20;32.08;;;;;;;-1.66;87.29;102011.94;5040008;28;20120;-70
2022/03/05 06:58:28;;;;;;;83.10;32.25;;;;;;;-1.50;86.82;102017.81;5039871;28;20056;-70
2022/03/05 07:00:54;;;;;;;80.47;32.47;;;;;;;-1.42;86.21;102015.34;5038345;28;20570;-70
2022/03/05 07:03:19;;;;;;;74.55;31.27;;;;;;;-1.39;85.73;102015.09;5043187;28;20040;-69
2022/03/05 07:05:44;;;;;;;80.18;32.42;;;;;;;-1.40;85.60;102017.91;5044114;28;20422;-70
2022/03/05 07:08:10;;;;;;;87.13;34.90;;;;;;;-1.42;85.67;102025.25;5042134;28;20029;-69
2022/03/05 07:10:35;;;;;;;89.07;36.78;;;;;;;-1.42;85.62;102022.56;5044362;28;20028;-70
2022/03/05 07:13:00;;;;;;;89.10;37.03;;;;;;;-1.42;85.67;102030.63;5044350;28;20078;-69
2022/03/05 07:15:26;;;;;;;81.35;35.90;;;;;;;-1.40;86.24;102029.53;5043505;28;20021;-70
2022/03/05 07:17:52;;;;;;;84.97;35.35;;;;;;;-1.28;85.93;102035.78;5041018;28;20058;-70
2022/03/05 07:20:18;;;;;;;83.22;33.75;;;;;;;-1.14;85.13;102038.22;5043470;28;20028;-70
2022/03/05 07:22:43;;;;;;;85.32;33.30;;;;;;;-0.98;84.51;102035.09;5043927;28;20025;-69
2022/03/05 07:25:11;;;;;;;85.32;33.58;;;;;;;-0.86;84.52;102038.66;5043503;28;20052;-70
2022/03/05 07:27:36;;;;;;;87.70;34.70;;;;;;;-0.57;82.65;102039.75;5044272;28;20073;-70
2022/03/05 07:30:02;;;;;;;82.82;34.42;;;;;;;-0.63;83.40;102037.56;5042441;28;20549;-70
2022/03/05 07:32:27;;;;;;;88.22;35.00;;;;;;;-0.49;83.18;102036.41;5042475;28;20029;-70
2022/03/05 07:34:52;;;;;;;85.35;35.15;;;;;;;-0.36;82.43;102037.06;5043248;28;20021;-69
2022/03/05 07:37:18;;;;;;;81.57;34.53;;;;;;;-0.23;82.36;102039.59;5043459;28;20029;-70
2022/03/05 07:39:43;;;;;;;86.03;34.25;;;;;;;-0.01;81.44;102035.91;5042687;28;20020;-70
2022/03/05 07:42:09;;;;;;;86.55;35.63;;;;;;;0.23;80.73;102028.38;5042814;28;20056;-70
2022/03/05 07:44:34;;;;;;;87.82;36.47;;;;;;;0.28;80.13;102027.97;5044018;28;20040;-70
2022/03/05 07:46:59;;;;;;;81.88;33.25;;;;;;;0.21;80.13;102027.66;5043273;28;20028;-70
2022/03/05 07:49:25;;;;;;;81.25;33.10;;;;;;;0.13;80.36;102038.25;5041874;28;20494;-70
2022/03/05 07:51:50;;;;;;;78.40;34.88;;;;;;;0.37;80.28;102034.41;5043075;28;20687;-70
2022/03/05 07:54:15;;;;;;;77.05;33.40;;;;;;;0.78;79.18;102031.56;5043283;28;20111;-70
2022/03/05 07:56:41;;;;;;;79.07;33.15;;;;;;;0.95;77.73;102032.75;5042661;28;20053;-70
2022/03/05 07:59:07;;;;;;;78.82;32.15;;;;;;;0.94;77.88;102033.75;5043477;28;20021;-70
2022/03/05 08:01:32;;;;;;;76.07;31.98;;;;;;;1.04;77.78;102036.47;5041975;28;20025;-70
2022/03/05 08:03:57;;;;;;;71.43;32.35;;;;;;;1.07;77.47;102049.75;5041838;28;20032;-70
2022/03/05 08:06:23;;;;;;;82.78;31.88;;;;;;;1.12;78.03;102039.34;5042697;28;20017;-70
2022/03/05 08:08:48;;;;;;;79.32;31.25;;;;;;;1.41;76.75;102039.38;5042881;28;20028;-70
2022/03/05 08:11:13;;;;;;;74.35;31.05;;;;;;;1.62;76.00;102041.06;5042266;28;20470;-70
2022/03/05 08:13:38;;;;;;;81.03;32.33;;;;;;;1.97;75.30;102049.44;5042311;28;20040;-70
2022/03/05 08:16:04;;;;;;;76.97;31.27;;;;;;;2.81;72.89;102045.91;5042886;28;20557;-70
2022/03/05 08:18:29;;;;;;;68.68;28.40;;;;;;;3.44;69.79;102042.34;5041701;28;20025;-69
2022/03/05 08:20:54;;;;;;;75.50;28.20;;;;;;;4.19;67.11;102046.38;5042138;28;20068;-68
2022/03/05 08:23:20;;;;;;;75.13;31.48;;;;;;;4.25;65.45;102044.88;5042221;28;20531;-68
2022/03/05 08:25:45;;;;;;;74.03;30.02;;;;;;;3.98;66.42;102048.63;5042950;28;20036;-68
2022/03/05 08:28:10;;;;;;;67.50;29.50;;;;;;;4.38;64.71;102043.47;5042438;28;20471;-68
2022/03/05 08:30:36;;;;;;;69.25;30.75;;;;;;;4.72;63.73;102036.34;5042185;28;20025;-68
2022/03/05 08:33:01;;;;;;;69.30;29.95;;;;;;;5.43;62.71;102041.31;5041527;28;20123;-68
2022/03/05 08:35:26;;;;;;;67.80;29.02;;;;;;;5.99;60.29;102047.84;5042359;28;20029;-68
2022/03/05 08:37:52;;;;;;;69.45;30.02;;;;;;;6.20;58.85;102050.06;5042377;28;20036;-69
2022/03/05 08:40:19;;;;;;;70.40;29.75;;;;;;;6.29;58.74;102053.63;5041835;28;20087;-69
2022/03/05 08:42:45;;;;;;;64.40;28.33;;;;;;;6.55;57.84;102043.34;5041867;28;20032;-69
2022/03/05 08:45:11;;;;;;;66.95;28.77;;;;;;;6.77;56.65;102041.72;5040328;28;20025;-69
2022/03/05 08:47:37;;;;;;;64.72;28.45;;;;;;;7.05;56.09;102049.47;5041531;28;20029;-69
2022/03/05 08:50:03;;;;;;;65.38;30.50;;;;;;;6.88;55.60;102048.66;5042646;28;20490;-69
2022/03/05 08:52:35;;;;;;;64.80;28.60;;;;;;;6.52;55.76;102049.13;5039908;28;20550;-70
2022/03/05 08:55:01;;;;;;;64.40;29.95;;;;;;;6.50;57.30;102052.03;5042116;28;20029;-70
2022/03/05 08:57:26;;;;;;;66.70;31.05;;;;;;;6.44;56.19;102046.44;5041175;28;20037;-70
2022/03/05 08:59:51;;;;;;;63.63;29.95;;;;;;;6.87;56.44;102041.50;5041723;28;20033;-70
2022/03/05 09:02:16;;;;;;;62.65;30.08;;;;;;;7.67;53.76;102044.81;5040985;28;20032;-69
2022/03/05 09:04:42;;;;;;;62.80;28.45;;;;;;;8.65;51.77;102038.41;5039883;28;20490;-70
2022/03/05 09:07:07;;;;;;;60.90;30.85;;;;;;;9.49;48.91;102038.00;5041927;28;20036;-70
2022/03/05 09:09:32;;;;;;;59.38;27.52;;;;;;;10.39;47.15;102040.97;5041457;28;20391;-69
2022/03/05 09:11:57;;;;;;;61.10;27.60;;;;;;;10.35;45.13;102036.06;5041948;28;20021;-69
2022/03/05 09:14:23;;;;;;;59.00;27.88;;;;;;;10.89;44.53;102038.09;5041540;28;20029;-69
2022/03/05 09:16:48;;;;;;;59.78;28.13;;;;;;;11.92;42.67;102038.88;5040755;28;20032;-69
2022/03/05 09:19:13;;;;;;;60.83;29.38;;;;;;;13.15;39.39;102039.91;5040358;28;20025;-69
2022/03/05 09:21:39;;;;;;;55.35;26.45;;;;;;;14.43;38.79;102036.09;5041698;28;20433;-68
2022/03/05 09:24:05;;;;;;;52.97;25.52;;;;;;;15.18;35.20;102033.16;5041775;28;20112;-69
2022/03/05 09:26:32;;;;;;;60.53;28.27;;;;;;;15.33;34.83;102025.28;5040443;28;20037;-69
2022/03/05 09:28:57;;;;;;;61.25;28.65;;;;;;;15.58;34.28;102033.47;5041460;28;20032;-70
2022/03/05 09:31:22;;;;;;;62.78;29.13;;;;;;;16.01;32.78;102030.47;5040944;28;20056;-69
2022/03/05 09:33:48;;;;;;;58.03;28.77;;;;;;;16.15;33.79;102025.56;5040191;28;20033;-69
2022/03/05 09:36:13;;;;;;;60.58;29.25;;;;;;;16.63;32.28;102027.28;5041013;28;20025;-66
2022/03/05 09:38:38;;;;;;;60.35;29.00;;;;;;;17.21;32.18;102018.00;5041332;28;20678;-67
2022/03/05 09:41:06;;;;;;;59.75;29.20;;;;;;;17.51;31.65;102023.31;5041449;28;20033;-67
2022/03/05 09:43:32;;;;;;;62.92;30.15;;;;;;;18.15;29.37;102023.94;5040823;28;20066;-67
2022/03/05 09:45:58;;;;;;;63.78;30.38;;;;;;;18.60;28.21;102027.69;5040889;28;20017;-66
2022/03/05 09:48:26;;;;;;;64.30;31.75;;;;;;;18.05;28.66;102023.78;5040082;28;20032;-66
2022/03/05 09:50:52;;;;;;;61.13;31.73;;;;;;;18.16;29.04;102024.78;5039165;28;20511;-66
2022/03/05 09:53:20;;;;;;;71.88;34.97;;;;;;;17.69;29.11;102024.19;5040656;28;20392;-66
2022/03/05 09:55:48;;;;;;;70.18;34.72;;;;;;;17.99;30.40;102027.53;5040339;28;20400;-67
2022/03/05 09:58:13;;;;;;;78.50;38.42;;;;;;;18.63;28.93;102022.47;5040258;28;20434;-66
2022/03/05 10:00:39;;;;;;;71.60;37.30;;;;;;;19.06;27.92;102032.00;5040479;28;20032;-67
2022/03/05 10:03:06;;;;;;;79.15;38.75;;;;;;;19.00;28.22;102038.56;5040360;28;20085;-67
2022/03/05 10:05:31;;;;;;;73.82;39.15;;;;;;;19.19;26.78;102030.75;5040112;28;20021;-66
2022/03/05 10:08:10;;;;;;;76.40;37.17;;;;;;;18.66;27.80;102026.69;5040767;28;20021;-66
2022/03/05 10:10:43;;;;;;;70.90;38.25;;;;;;;19.00;28.30;102032.16;5041495;28;20036;-66
2022/03/05 10:13:25;;;;;;;72.60;35.90;;;;;;;19.15;28.85;102024.84;5040709;28;20240;-66
2022/03/05 10:15:56;;;;;;;74.50;34.45;;;;;;;18.88;28.03;102030.34;5040351;28;20029;-66
2022/03/05 10:18:30;;;;;;;79.18;36.78;;;;;;;19.02;28.21;102032.78;5038652;28;20045;-66
2022/03/05 10:20:55;;;;;;;80.40;40.40;;;;;;;19.15;27.27;102030.41;5040706;28;20024;-66
2022/03/05 10:23:21;;;;;;;75.90;36.58;;;;;;;19.59;27.26;102026.75;5040450;28;20387;-66
2022/03/05 10:25:50;;;;;;;71.93;35.42;;;;;;;19.41;26.60;102025.16;5040677;28;20064;-66
2022/03/05 10:28:23;;;;;;;72.65;35.22;;;;;;;18.93;26.88;102029.59;5040697;28;20040;-66
2022/03/05 10:30:54;;;;;;;73.75;36.80;;;;;;;17.96;28.06;102027.22;5039828;28;20025;-66
2022/03/05 10:33:40;;;;;;;73.40;37.75;;;;;;;18.19;29.15;102027.03;5039449;28;20052;-66
2022/03/05 10:36:09;;;;;;;77.80;38.63;;;;;;;18.66;29.00;102027.53;5040773;28;20356;-66
2022/03/05 10:39:06;;;;;;;74.00;37.60;;;;;;;19.28;28.92;102028.34;5045045;28;20060;-65
2022/03/05 10:41:33;;;;;;;67.20;33.00;;;;;;;19.16;26.32;102022.94;5042612;28;20044;-66
2022/03/05 10:44:11;;;;;;;76.15;39.33;;;;;;;19.21;27.21;102028.56;5044854;28;20259;-66
2022/03/05 10:46:40;;;;;;;72.75;38.00;;;;;;;19.55;26.67;102020.84;5043954;28;20029;-66
2022/03/05 10:49:20;;;;;;;69.45;33.95;;;;;;;20.37;25.29;102030.81;5044350;28;20475;-65
2022/03/05 10:51:50;;;;;;;66.88;36.28;;;;;;;20.18;24.94;102027.63;5043107;28;20033;-66
2022/03/05 10:54:30;;;;;;;64.90;33.33;;;;;;;20.12;25.45;102025.91;5044392;28;20025;-65
2022/03/05 10:57:09;;;;;;;70.78;37.55;;;;;;;20.31;26.46;102025.47;5043798;28;20080;-66
2022/03/05 10:59:41;;;;;;;68.05;36.78;;;;;;;20.26;23.73;102026.28;5043673;28;20132;-65
2022/03/05 11:02:09;;;;;;;67.93;36.25;;;;;;;20.20;24.56;102028.19;5043979;28;20025;-66
2022/03/05 11:04:36;;;;;;;66.97;35.78;;;;;;;20.61;23.69;102022.94;5043707;28;20037;-66
2022/03/05 11:07:02;;;;;;;56.17;33.67;;;;;;;20.58;22.40;102022.63;5044440;28;20021;-65
2022/03/05 11:09:29;;;;;;;66.50;35.63;;;;;;;20.67;22.94;102024.63;5044107;28;20078;-66
2022/03/05 11:11:55;;;;;;;60.55;34.08;;;;;;;20.89;23.01;102026.47;5043948;28;20029;-65